Time;durP1;ratioP1;P1;durP2;ratioP2;P2;SDS_P1;SDS_P2;PMS_P1;PMS_P2;Temp;Humidity;BMP_temperature;BMP_pressure;BME280_temperature;BME280_humidity;BME280_pressure;Samples;Min_cycle;Max_cycle;Signal;HPM_P1;HPM_P2
2023/10/17 09:33:55;;;;;;;;;;;;;;;;;;;;;
2023/10/17 11:02:38;;;;;;;;;;;;;;;;;;;;;
2023/10/17 12:08:11;;;;;;;12.87;11.63;;;12.60;99.90;;;;;;5086244;22;20533;-84
2023/10/17 12:11:04;;;;;;;12.97;11.70;;;12.50;99.90;;;;;;5028522;28;20541;-81
2023/10/17 12:17:19;;;;;;;12.00;10.90;;;12.60;99.90;;;;;;4953349;28;20487;-81
2023/10/17 12:23:11;;;;;;;12.97;11.77;;;13.60;99.90;;;;;;4996661;28;20458;-83
2023/10/17 12:26:26;;;;;;;12.53;11.40;;;13.90;99.90;;;;;;5019597;28;20465;-83
2023/10/17 12:29:15;;;;;;;13.80;12.47;;;13.90;99.90;;;;;;5007358;28;20447;-82
2023/10/17 12:36:30;;;;;;;13.07;11.97;;;14.20;99.90;;;;;;4977978;28;20504;-84
2023/10/17 12:40:18;;;;;;;;;;;;;;;;;;;;;
2023/10/17 13:03:37;;;;;;;13.33;12.07;;;13.80;99.90;;;;;;4887215;29;20445;-87
2023/10/17 13:06:14;;;;;;;13.10;11.80;;;13.70;99.90;;;;;;4904819;29;20481;-81
2023/10/17 13:12:00;;;;;;;13.10;11.80;;;13.50;99.90;;;;;;4997328;28;20454;-80
2023/10/17 13:14:29;;;;;;;14.73;13.23;;;13.40;99.90;;;;;;5010082;28;20523;-84
2023/10/17 13:20:07;;;;;;;13.57;12.30;;;13.50;99.90;;;;;;5007727;28;20445;-81
2023/10/17 13:26:27;;;;;;;14.17;12.87;;;13.30;99.90;;;;;;5008495;28;20459;-81
2023/10/17 13:29:11;;;;;;;14.93;12.33;;;13.50;99.90;;;;;;5005983;28;20445;-84
2023/10/17 13:31:58;;;;;;;13.27;11.97;;;13.60;99.90;;;;;;5005409;28;20524;-81
2023/10/17 13:34:41;;;;;;;13.50;12.20;;;13.50;99.90;;;;;;5002447;28;20465;-82
2023/10/17 13:37:26;;;;;;;12.33;11.13;;;13.50;99.90;;;;;;5002967;28;20566;-82
2023/10/17 13:40:12;;;;;;;13.90;12.73;;;13.40;99.90;;;;;;5001912;28;20467;-83
2023/10/17 13:53:06;;;;;;;14.63;11.50;;;13.30;99.90;;;;;;4996420;28;20871;-81
2023/10/17 13:56:18;;;;;;;13.33;12.03;;;13.40;99.90;;;;;;5002071;28;20448;-81
2023/10/17 13:59:54;;;;;;;12.83;11.53;;;13.20;99.90;;;;;;4994943;28;20448;-83
2023/10/17 14:40:37;;;;;;;;;;;;;;;;;;;;;
2023/10/17 14:50:34;;;;;;;12.27;11.10;;;13.50;99.90;;;;;;4746745;30;20465;-83
2023/10/17 14:53:47;;;;;;;11.13;10.20;;;13.80;99.90;;;;;;4777465;29;20460;-82
2023/10/17 15:03:06;;;;;;;12.10;11.00;;;13.50;99.90;;;;;;4858054;29;20426;-85
2023/10/17 15:05:40;;;;;;;12.07;10.10;;;13.80;99.90;;;;;;4919691;29;20451;-82
2023/10/17 15:08:11;;;;;;;11.87;10.63;;;13.60;99.90;;;;;;4918821;29;20467;-84
2023/10/17 15:10:54;;;;;;;10.80;9.80;;;13.50;99.90;;;;;;4959858;28;20455;-84
2023/10/17 15:13:46;;;;;;;10.37;9.57;;;13.60;99.90;;;;;;4998297;28;20423;-83
2023/10/17 15:16:58;;;;;;;9.97;9.17;;;13.50;99.90;;;;;;4999142;28;20468;-82
2023/10/17 15:19:35;;;;;;;9.43;8.37;;;13.50;99.90;;;;;;4917494;29;20471;-81
2023/10/17 15:22:14;;;;;;;10.80;9.90;;;13.50;99.90;;;;;;4991161;28;20452;-82
2023/10/17 15:24:58;;;;;;;18.40;13.10;;;13.50;99.90;;;;;;4997473;28;20988;-83
2023/10/17 15:27:27;;;;;;;17.70;12.63;;;13.70;99.90;;;;;;4998394;28;20483;-83
2023/10/17 15:29:54;;;;;;;11.07;9.97;;;13.40;99.90;;;;;;4996888;28;20531;-82
2023/10/17 15:32:24;;;;;;;10.40;9.33;;;13.50;99.90;;;;;;4999169;28;20494;-84
2023/10/17 15:34:53;;;;;;;11.07;9.83;;;13.60;99.90;;;;;;5003189;28;20428;-84
2023/10/17 15:37:29;;;;;;;11.00;9.90;;;13.30;99.90;;;;;;5004029;28;20990;-81
2023/10/17 15:44:06;;;;;;;10.60;9.50;;;13.20;99.90;;;;;;4866385;29;20511;-82
2023/10/17 15:53:30;;;;;;;8.20;7.60;;;13.20;99.90;;;;;;4841876;29;20526;-81
2023/10/17 15:56:31;;;;;;;11.63;8.57;;;13.20;99.90;;;;;;4899632;29;20452;-82
2023/10/17 15:59:35;;;;;;;9.63;8.63;;;13.00;99.90;;;;;;4997645;28;20440;-84
2023/10/17 16:09:09;;;;;;;8.70;8.00;;;12.90;99.90;;;;;;4857601;29;20455;-84
2023/10/17 16:11:57;;;;;;;8.37;7.67;;;12.90;99.90;;;;;;4920176;29;20867;-83
2023/10/17 16:14:51;;;;;;;8.53;7.60;;;12.80;99.90;;;;;;4929745;28;20555;-82
2023/10/17 16:24:27;;;;;;;10.97;8.30;;;12.60;99.90;;;;;;4857836;28;20435;-81
2023/10/17 16:27:07;;;;;;;8.93;8.20;;;12.50;99.90;;;;;;4998439;28;20468;-81
2023/10/17 16:32:21;;;;;;;8.83;8.03;;;12.40;99.90;;;;;;4944860;28;20462;-83
2023/10/17 16:34:54;;;;;;;9.70;8.30;;;12.20;99.90;;;;;;5002929;28;20493;-84
2023/10/17 16:37:22;;;;;;;9.00;8.30;;;12.10;99.90;;;;;;5002253;28;20490;-84
2023/10/17 16:40:15;;;;;;;10.60;8.90;;;12.10;99.90;;;;;;5003264;28;20448;-83
2023/10/17 16:42:44;;;;;;;9.00;8.20;;;12.00;99.90;;;;;;4988381;28;20467;-84
2023/10/17 16:45:12;;;;;;;8.50;7.70;;;11.60;99.90;;;;;;5002248;28;20510;-83
2023/10/17 16:47:41;;;;;;;9.03;8.23;;;11.90;99.90;;;;;;5001169;28;20461;-81
2023/10/17 16:50:17;;;;;;;9.73;8.93;;;11.80;99.90;;;;;;5002534;28;20448;-81
2023/10/17 16:52:46;;;;;;;8.60;7.90;;;12.00;99.90;;;;;;5005935;28;20442;-80
2023/10/17 16:55:16;;;;;;;8.90;8.07;;;11.80;99.90;;;;;;5006742;28;20506;-84
2023/10/17 16:57:44;;;;;;;9.50;8.50;;;11.70;99.90;;;;;;5004150;28;20483;-81
2023/10/17 17:00:20;;;;;;;8.83;8.03;;;11.60;99.90;;;;;;4998966;28;20448;-80
2023/10/17 17:02:47;;;;;;;8.63;7.83;;;11.60;99.90;;;;;;5002767;28;20438;-80
2023/10/17 17:05:20;;;;;;;8.50;7.70;;;11.50;99.90;;;;;;5017258;28;20447;-79
2023/10/17 17:07:46;;;;;;;12.43;8.80;;;11.20;99.90;;;;;;5017245;28;20468;-80
2023/10/17 17:10:19;;;;;;;10.20;9.20;;;11.40;99.90;;;;;;5018563;28;20447;-80
2023/10/17 17:12:48;;;;;;;9.40;8.60;;;11.40;99.90;;;;;;5013575;28;20432;-80
2023/10/17 17:15:22;;;;;;;9.50;8.60;;;11.40;99.90;;;;;;5001776;28;20425;-83
2023/10/17 17:17:53;;;;;;;11.13;9.23;;;11.30;99.90;;;;;;5001434;28;20860;-82
2023/10/17 17:23:47;;;;;;;8.30;7.57;;;10.90;99.90;;;;;;4960557;29;20991;-81
2023/10/17 17:26:25;;;;;;;9.67;8.77;;;11.10;99.90;;;;;;4961684;28;20484;-82
2023/10/17 17:29:03;;;;;;;10.33;9.33;;;11.00;99.90;;;;;;5003428;28;20444;-81
2023/10/17 17:32:07;;;;;;;11.10;8.83;;;11.00;99.90;;;;;;5003272;28;20448;-81
2023/10/17 17:35:02;;;;;;;9.10;8.10;;;10.90;99.90;;;;;;4901852;29;20457;-82
2023/10/17 17:37:50;;;;;;;9.63;8.73;;;10.80;99.90;;;;;;5017504;28;20510;-81
2023/10/17 17:40:24;;;;;;;10.53;9.53;;;10.80;99.90;;;;;;5022824;28;20440;-80
2023/10/17 17:45:59;;;;;;;10.10;9.20;;;10.40;99.90;;;;;;5002203;28;20440;-83
2023/10/17 17:48:39;;;;;;;9.43;8.63;;;10.60;99.90;;;;;;5025437;28;20445;-84
2023/10/17 17:51:18;;;;;;;10.50;9.60;;;10.60;99.90;;;;;;5026546;28;20454;-82
2023/10/17 17:53:51;;;;;;;9.63;8.83;;;10.50;99.90;;;;;;5027926;28;20435;-81
2023/10/17 17:56:19;;;;;;;9.43;8.63;;;10.60;99.90;;;;;;5024265;28;20483;-82
2023/10/17 17:58:59;;;;;;;10.60;9.37;;;10.50;99.90;;;;;;5022194;28;20490;-82
2023/10/17 18:01:43;;;;;;;9.83;8.87;;;10.40;99.90;;;;;;5022190;28;20451;-80
2023/10/17 18:04:18;;;;;;;9.50;8.70;;;10.40;99.90;;;;;;5017949;28;20444;-80
2023/10/17 18:06:53;;;;;;;10.27;9.30;;;10.30;99.90;;;;;;5021881;28;20467;-81
2023/10/17 18:09:24;;;;;;;10.10;9.20;;;10.20;99.90;;;;;;5020434;28;20450;-80
2023/10/17 18:11:53;;;;;;;11.00;10.00;;;10.10;99.90;;;;;;5022939;28;20432;-79
2023/10/17 18:14:35;;;;;;;9.37;8.47;;;10.30;99.90;;;;;;5022257;28;20446;-80
2023/10/17 18:17:13;;;;;;;10.43;9.53;;;10.10;99.90;;;;;;5021283;28;20459;-82
2023/10/17 18:19:40;;;;;;;10.23;9.27;;;10.00;99.90;;;;;;5006333;28;20467;-83
2023/10/17 18:22:07;;;;;;;10.97;9.97;;;10.00;99.90;;;;;;5026150;28;20510;-81
2023/10/17 18:24:38;;;;;;;14.50;13.13;;;10.20;99.90;;;;;;5021821;28;20448;-81
2023/10/17 18:27:09;;;;;;;11.83;10.70;;;9.90;99.90;;;;;;5023960;28;20483;-79
2023/10/17 18:30:04;;;;;;;10.87;9.87;;;9.90;99.90;;;;;;5020024;28;20446;-80
2023/10/17 18:32:32;;;;;;;11.57;10.50;;;9.80;99.90;;;;;;4957743;29;20510;-79
2023/10/17 18:35:03;;;;;;;11.57;10.13;;;9.80;99.90;;;;;;5009294;28;20526;-80
2023/10/17 18:38:18;;;;;;;12.50;10.37;;;9.80;99.90;;;;;;5018549;28;20471;-83
2023/10/17 18:40:48;;;;;;;28.93;25.87;;;9.70;99.90;;;;;;5008812;28;20446;-81
2023/10/17 18:43:30;;;;;;;12.30;11.20;;;9.60;99.90;;;;;;5016706;28;20451;-81
2023/10/17 18:49:58;;;;;;;15.30;11.70;;;9.50;99.90;;;;;;4961240;28;20452;-83
2023/10/17 18:52:39;;;;;;;14.47;12.37;;;9.50;99.90;;;;;;5014127;28;20486;-81
2023/10/17 18:55:39;;;;;;;13.17;11.87;;;9.60;99.90;;;;;;5018527;28;20439;-83
2023/10/17 18:58:17;;;;;;;12.93;11.70;;;9.40;99.90;;;;;;5006879;28;20479;-82
2023/10/17 19:01:16;;;;;;;13.37;12.13;;;9.30;99.90;;;;;;5008521;28;20454;-80
2023/10/17 19:03:57;;;;;;;13.30;12.00;;;9.20;99.90;;;;;;5005373;28;20466;-83
2023/10/17 19:06:24;;;;;;;14.13;12.93;;;9.40;99.90;;;;;;5010551;28;20476;-81
2023/10/17 19:08:59;;;;;;;13.77;12.57;;;9.20;99.90;;;;;;5018869;28;20431;-80
2023/10/17 19:11:50;;;;;;;15.07;13.43;;;9.40;99.90;;;;;;5015091;28;20474;-81
2023/10/17 19:15:13;;;;;;;14.87;13.47;;;9.20;99.90;;;;;;5019687;28;20443;-80
2023/10/17 19:18:12;;;;;;;14.17;12.97;;;9.20;99.90;;;;;;5024042;28;20563;-82
